createdAt,value
2018-05-09T00:00:33.660Z,51.92
2018-05-09T00:01:14.134Z,52.11
2018-05-09T00:01:54.608Z,51.92
2018-05-09T00:02:35.108Z,51.92
2018-05-09T00:03:15.573Z,51.62
2018-05-09T00:03:56.074Z,51.82
2018-05-09T00:04:36.564Z,52.11
2018-05-09T00:05:17.066Z,51.24
2018-05-09T00:05:57.567Z,50.66
2018-05-09T00:06:38.021Z,50.47
2018-05-09T00:07:18.509Z,50.57
2018-05-09T00:07:59.054Z,50.57
2018-05-09T00:08:39.545Z,50.37
2018-05-09T00:09:20.070Z,50.76
2018-05-09T00:10:00.523Z,50.57
2018-05-09T00:10:41.028Z,50.37
2018-05-09T00:11:21.472Z,50.37
2018-05-09T00:12:02.060Z,49.89
2018-05-09T00:12:42.456Z,50.09
2018-05-09T00:13:22.985Z,50.09
2018-05-09T00:14:03.454Z,50.37
2018-05-09T00:14:43.954Z,50.57
2018-05-09T00:15:24.422Z,50.18
2018-05-09T00:16:04.927Z,50.27
2018-05-09T00:16:45.419Z,50.37
2018-05-09T00:17:25.884Z,50.47
2018-05-09T00:18:06.383Z,50.66
2018-05-09T00:18:46.884Z,50.27
2018-05-09T00:19:27.394Z,50.27
2018-05-09T00:20:07.873Z,50.47
2018-05-09T00:20:48.381Z,50.57
2018-05-09T00:21:28.909Z,50.57
2018-05-09T00:22:09.368Z,50.09
2018-05-09T00:22:49.866Z,50.18
2018-05-09T00:23:30.363Z,49.79
2018-05-09T00:24:10.843Z,50.37
2018-05-09T00:24:51.315Z,50.09
2018-05-09T00:25:31.810Z,50.27
2018-05-09T00:26:12.266Z,50.37
2018-05-09T00:26:52.786Z,50.57
2018-05-09T00:27:33.299Z,50.27
2018-05-09T00:28:13.790Z,50.27
2018-05-09T00:28:54.277Z,49.7
2018-05-09T00:29:34.741Z,50.09
2018-05-09T00:30:15.226Z,50.37
2018-05-09T00:30:55.705Z,50.47
2018-05-09T00:31:36.217Z,50.09
2018-05-09T00:32:16.762Z,50.18
2018-05-09T00:32:57.195Z,50.37
2018-05-09T00:33:37.692Z,50.57
2018-05-09T00:34:18.191Z,50.18
2018-05-09T00:34:58.675Z,50.66
2018-05-09T00:35:39.200Z,50.85
2018-05-09T00:36:19.661Z,50.85
2018-05-09T00:37:00.128Z,50.76
2018-05-09T00:37:40.652Z,50.95
2018-05-09T00:38:21.101Z,51.24
2018-05-09T00:39:01.562Z,50.85
2018-05-09T00:39:42.070Z,50.47
2018-05-09T00:40:22.502Z,50.57
2018-05-09T00:41:02.997Z,50.47
2018-05-09T00:41:43.508Z,50.47
2018-05-09T00:42:23.953Z,50.57
2018-05-09T00:43:04.440Z,50.57
2018-05-09T00:43:44.947Z,50.57
2018-05-09T00:44:25.476Z,50.47
2018-05-09T00:45:05.937Z,50.76
2018-05-09T00:45:46.442Z,50.93
2018-05-09T00:46:26.946Z,50.93
2018-05-09T00:47:07.478Z,51.12
2018-05-09T00:47:47.916Z,50.83
2018-05-09T00:48:28.405Z,51.12
2018-05-09T00:49:08.893Z,51.5
2018-05-09T00:49:49.387Z,51.12
2018-05-09T00:50:29.896Z,51.41
2018-05-09T00:51:10.439Z,51.31
2018-05-09T00:51:50.888Z,51.02
2018-05-09T00:52:31.365Z,51.31
2018-05-09T00:53:11.844Z,51.21
2018-05-09T00:53:52.363Z,51.12
2018-05-09T00:54:32.798Z,51.21
2018-05-09T00:55:13.322Z,51.21
2018-05-09T00:55:53.824Z,50.93
2018-05-09T00:56:34.307Z,50.93
2018-05-09T00:57:14.746Z,50.93
2018-05-09T00:57:55.295Z,51.21
2018-05-09T00:58:35.743Z,51.02
2018-05-09T00:59:16.257Z,50.83
2018-05-09T00:59:56.739Z,50.63
2018-05-09T01:00:37.228Z,50.54
2018-05-09T01:01:17.771Z,50.66
2018-05-09T01:01:58.234Z,50.93
2018-05-09T01:02:38.753Z,50.83
2018-05-09T01:03:19.228Z,50.93
2018-05-09T01:03:59.718Z,50.93
2018-05-09T01:04:40.245Z,51.21
2018-05-09T01:05:20.736Z,51.12
2018-05-09T01:06:01.279Z,51.02
2018-05-09T01:06:41.715Z,50.83
2018-05-09T01:07:22.218Z,51.12
2018-05-09T01:08:02.715Z,50.83
2018-05-09T01:08:43.188Z,50.93
2018-05-09T01:09:23.724Z,51.21
2018-05-09T01:10:04.184Z,51.12
2018-05-09T01:10:44.672Z,51.02
2018-05-09T01:11:25.153Z,51.12
2018-05-09T01:12:05.658Z,51.12
2018-05-09T01:12:46.131Z,51.12
2018-05-09T01:13:26.614Z,51.21
2018-05-09T01:14:07.125Z,51.21
2018-05-09T01:14:47.638Z,51.21
2018-05-09T01:15:28.144Z,50.83
2018-05-09T01:16:08.617Z,50.93
2018-05-09T01:16:49.113Z,51.12
2018-05-09T01:17:29.584Z,50.83
2018-05-09T01:18:10.122Z,50.93
2018-05-09T01:18:50.620Z,50.83
2018-05-09T01:19:31.078Z,50.25
2018-05-09T01:20:11.574Z,50.35
2018-05-09T01:20:52.044Z,50.35
2018-05-09T01:21:32.532Z,50.54
2018-05-09T01:22:13.007Z,50.35
2018-05-09T01:22:53.478Z,50.35
2018-05-09T01:23:33.974Z,50.93
2018-05-09T01:24:14.460Z,51.02
2018-05-09T01:24:54.947Z,51.21
2018-05-09T01:25:35.459Z,51.98
2018-05-09T01:26:15.978Z,52.47
2018-05-09T01:26:56.462Z,52.63
2018-05-09T01:27:36.933Z,53.02
2018-05-09T01:28:17.444Z,52.92
2018-05-09T01:28:57.951Z,53.21
2018-05-09T01:29:38.406Z,53.11
2018-05-09T01:30:18.912Z,53.5
2018-05-09T01:30:59.379Z,53.31
2018-05-09T01:31:39.921Z,53.31
2018-05-09T01:32:20.368Z,53.11
2018-05-09T01:33:00.902Z,53.11
2018-05-09T01:33:41.355Z,53.21
2018-05-09T01:34:21.868Z,53.59
2018-05-09T01:35:02.352Z,53.5
2018-05-09T01:35:42.837Z,53.78
2018-05-09T01:36:23.331Z,53.69
2018-05-09T01:37:03.808Z,54.08
2018-05-09T01:37:44.340Z,53.98
2018-05-09T01:38:24.851Z,53.59
2018-05-09T01:39:05.349Z,53.59
2018-05-09T01:39:45.855Z,54.17
2018-05-09T01:40:26.333Z,54.08
2018-05-09T01:41:06.850Z,54.46
2018-05-09T01:41:47.296Z,53.69
2018-05-09T01:42:27.826Z,53.98
2018-05-09T01:43:08.292Z,54.27
2018-05-09T01:43:48.790Z,54.27
2018-05-09T01:44:29.243Z,54.17
2018-05-09T01:45:09.750Z,54.17
2018-05-09T01:45:50.206Z,54.65
2018-05-09T01:46:30.707Z,54.46
2018-05-09T01:47:11.232Z,54.56
2018-05-09T01:47:51.722Z,54.65
2018-05-09T01:48:32.170Z,54.56
2018-05-09T01:49:12.708Z,54.56
2018-05-09T01:49:53.176Z,54.08
2018-05-09T01:50:33.687Z,54.17
2018-05-09T01:51:14.179Z,54.36
2018-05-09T01:51:54.693Z,53.98
2018-05-09T01:52:35.169Z,53.88
2018-05-09T01:53:15.665Z,53.21
2018-05-09T01:53:56.151Z,53.98
2018-05-09T01:54:36.685Z,53.88
2018-05-09T01:55:17.157Z,53.59
2018-05-09T01:55:57.641Z,53.69
2018-05-09T01:56:38.149Z,53.78
2018-05-09T01:57:18.637Z,54.17
2018-05-09T01:57:59.107Z,53.59
2018-05-09T01:58:39.591Z,53.69
2018-05-09T01:59:20.092Z,53.88
2018-05-09T02:00:00.573Z,53.5
2018-05-09T02:00:41.052Z,53.02
2018-05-09T02:01:21.572Z,53.11
2018-05-09T02:02:02.020Z,53.21
2018-05-09T02:02:42.522Z,53.59
2018-05-09T02:03:23.022Z,53.11
2018-05-09T02:04:03.477Z,53.02
2018-05-09T02:04:43.970Z,52.83
2018-05-09T02:05:24.476Z,52.92
2018-05-09T02:06:05.064Z,52.92
2018-05-09T02:06:45.432Z,53.02
2018-05-09T02:07:25.972Z,53.02
2018-05-09T02:08:06.454Z,53.31
2018-05-09T02:08:46.917Z,52.63
2018-05-09T02:09:27.387Z,52.54
2018-05-09T02:10:07.911Z,52.63
2018-05-09T02:10:48.342Z,52.34
2018-05-09T02:11:28.817Z,52.06
2018-05-09T02:12:09.321Z,52.15
2018-05-09T02:12:49.809Z,52.15
2018-05-09T02:13:30.311Z,52.15
2018-05-09T02:14:10.785Z,52.54
2018-05-09T02:14:51.278Z,52.63
2018-05-09T02:15:31.733Z,52.63
2018-05-09T02:16:12.214Z,52.54
2018-05-09T02:16:52.759Z,52.73
2018-05-09T02:17:33.224Z,52.54
2018-05-09T02:18:13.714Z,52.63
2018-05-09T02:18:54.213Z,52.25
2018-05-09T02:19:34.659Z,52.34
2018-05-09T02:20:15.195Z,52.25
2018-05-09T02:20:55.656Z,52.63
2018-05-09T02:21:36.191Z,53.02
2018-05-09T02:22:16.679Z,52.92
2018-05-09T02:22:57.170Z,52.92
2018-05-09T02:23:37.689Z,52.92
2018-05-09T02:24:18.183Z,53.02
2018-05-09T02:24:58.639Z,53.02
2018-05-09T02:25:39.096Z,52.83
2018-05-09T02:26:19.562Z,53.21
2018-05-09T02:27:00.074Z,52.54
2018-05-09T02:27:40.551Z,52.63
2018-05-09T02:28:21.063Z,52.63
2018-05-09T02:29:01.514Z,52.15
2018-05-09T02:29:42.034Z,52.25
2018-05-09T02:30:22.503Z,52.06
2018-05-09T02:31:02.989Z,51.96
2018-05-09T02:31:43.494Z,52.15
2018-05-09T02:32:24.017Z,51.86
2018-05-09T02:33:04.523Z,52.63
2018-05-09T02:33:45.008Z,52.92
2018-05-09T02:34:25.510Z,53.31
2018-05-09T02:35:06.010Z,53.5
2018-05-09T02:35:46.501Z,53.19
2018-05-09T02:36:26.976Z,53.47
2018-05-09T02:37:07.511Z,53.78
2018-05-09T02:37:47.999Z,53.69
2018-05-09T02:38:28.429Z,53.66
2018-05-09T02:39:08.929Z,53.69
2018-05-09T02:39:49.475Z,53.76
2018-05-09T02:40:29.949Z,53.47
2018-05-09T02:41:10.422Z,53.57
2018-05-09T02:41:50.965Z,53.86
2018-05-09T02:42:31.472Z,53.57
2018-05-09T02:43:11.986Z,53.11
2018-05-09T02:43:52.421Z,53.57
2018-05-09T02:44:32.956Z,53.76
2018-05-09T02:45:13.454Z,53.59
2018-05-09T02:45:53.928Z,53.38
2018-05-09T02:46:34.415Z,53.47
2018-05-09T02:47:14.878Z,53.96
2018-05-09T02:47:55.339Z,53.76
2018-05-09T02:48:35.822Z,53.5
2018-05-09T02:49:16.322Z,53.09
2018-05-09T02:49:56.896Z,53.28
2018-05-09T02:50:37.267Z,53.76
2018-05-09T02:51:17.761Z,53.66
2018-05-09T02:51:58.280Z,53.66
2018-05-09T02:52:38.764Z,53.66
2018-05-09T02:53:19.278Z,54.05
2018-05-09T02:53:59.797Z,54.14
2018-05-09T02:54:40.238Z,54.22
2018-05-09T02:55:20.757Z,54.43
2018-05-09T02:56:01.250Z,54.34
2018-05-09T02:56:41.741Z,54.22
2018-05-09T02:57:22.259Z,54.5
2018-05-09T02:58:02.730Z,54.31
2018-05-09T02:58:43.202Z,54.79
2018-05-09T02:59:23.695Z,54.24
2018-05-09T03:00:04.158Z,54.34
2018-05-09T03:00:44.648Z,54.53
2018-05-09T03:01:25.141Z,54.34
2018-05-09T03:02:05.640Z,54.89
2018-05-09T03:02:46.104Z,54.79
2018-05-09T03:03:26.586Z,54.5
2018-05-09T03:04:07.116Z,54.99
2018-05-09T03:04:47.603Z,54.6
2018-05-09T03:05:28.099Z,54.6
2018-05-09T03:06:08.580Z,54.69
2018-05-09T03:06:49.109Z,54.31
2018-05-09T03:07:29.553Z,54.24
2018-05-09T03:08:10.069Z,54.22
2018-05-09T03:08:50.525Z,54.43
2018-05-09T03:09:31.018Z,54.22
2018-05-09T03:10:11.524Z,54.41
2018-05-09T03:10:52.001Z,54.41
2018-05-09T03:11:32.505Z,54.31
2018-05-09T03:12:13.017Z,54.22
2018-05-09T03:12:53.529Z,54.22
2018-05-09T03:13:33.973Z,54.53
2018-05-09T03:14:14.463Z,54.53
2018-05-09T03:14:54.939Z,54.34
2018-05-09T03:15:35.439Z,54.34
2018-05-09T03:16:15.914Z,54.24
2018-05-09T03:16:56.418Z,54.05
2018-05-09T03:17:36.939Z,54.24
2018-05-09T03:18:17.406Z,54.63
2018-05-09T03:18:57.920Z,54.43
2018-05-09T03:19:38.420Z,54.34
2018-05-09T03:20:18.964Z,54.43
2018-05-09T03:20:59.394Z,53.96
2018-05-09T03:21:39.892Z,54.53
2018-05-09T03:22:20.373Z,54.05
2018-05-09T03:23:00.851Z,54.53
2018-05-09T03:23:41.321Z,54.43
2018-05-09T03:24:21.840Z,54.53
2018-05-09T03:25:02.352Z,54.63
2018-05-09T03:25:42.804Z,54.05
2018-05-09T03:26:23.289Z,54.05
2018-05-09T03:27:03.780Z,53.96
2018-05-09T03:27:44.294Z,54.63
2018-05-09T03:28:24.765Z,54.63
2018-05-09T03:29:05.229Z,54.53
2018-05-09T03:29:45.806Z,54.24
2018-05-09T03:30:26.271Z,54.34
2018-05-09T03:31:06.724Z,54.14
2018-05-09T03:31:47.201Z,54.43
2018-05-09T03:32:27.710Z,54.14
2018-05-09T03:33:08.200Z,54.41
2018-05-09T03:33:48.715Z,54.5
2018-05-09T03:34:29.165Z,54.63
2018-05-09T03:35:09.670Z,55.01
2018-05-09T03:35:50.159Z,54.82
2018-05-09T03:36:30.671Z,55.2
2018-05-09T03:37:11.147Z,55.59
2018-05-09T03:37:51.639Z,55.59
2018-05-09T03:38:32.112Z,55.46
2018-05-09T03:39:12.605Z,55.49
2018-05-09T03:39:53.105Z,55.3
2018-05-09T03:40:33.561Z,55.59
2018-05-09T03:41:14.069Z,55.59
2018-05-09T03:41:54.545Z,55.3
2018-05-09T03:42:35.044Z,55.2
2018-05-09T03:43:15.579Z,55.49
2018-05-09T03:43:56.035Z,55.59
2018-05-09T03:44:36.524Z,55.4
2018-05-09T03:45:17.030Z,55.49
2018-05-09T03:45:57.519Z,55.01
2018-05-09T03:46:38.024Z,55.4
2018-05-09T03:47:18.480Z,55.3
2018-05-09T03:47:58.970Z,55.3
2018-05-09T03:48:39.434Z,55.3
2018-05-09T03:49:21.151Z,55.3
2018-05-09T03:50:02.157Z,55.56
2018-05-09T03:50:41.658Z,55.59
2018-05-09T03:51:22.654Z,55.3
2018-05-09T03:52:02.749Z,55.76
2018-05-09T03:52:44.644Z,55.76
2018-05-09T03:53:27.646Z,55.66
2018-05-09T03:54:07.468Z,55.66
2018-05-09T03:54:49.664Z,55.85
2018-05-09T03:55:30.647Z,55.85
2018-05-09T03:56:12.152Z,55.56
2018-05-09T03:56:52.304Z,55.37
2018-05-09T03:57:34.208Z,55.94
2018-05-09T03:58:14.993Z,55.66
2018-05-09T03:58:55.492Z,55.08
2018-05-09T03:59:35.977Z,55.76
2018-05-09T04:00:16.455Z,55.66
2018-05-09T04:00:56.950Z,55.66
2018-05-09T04:01:38.151Z,55.76
2018-05-09T04:02:18.692Z,55.66
2018-05-09T04:02:58.458Z,55.88
2018-05-09T04:03:39.649Z,55.59
2018-05-09T04:04:20.080Z,55.59
2018-05-09T04:05:00.593Z,55.37
2018-05-09T04:05:41.817Z,55.37
2018-05-09T04:06:23.156Z,55.37
2018-05-09T04:07:02.830Z,55.56
2018-05-09T04:07:44.158Z,55.66
2018-05-09T04:08:24.718Z,55.37
2018-05-09T04:09:05.244Z,55.56
2018-05-09T04:09:45.672Z,55.66
2018-05-09T04:10:26.195Z,55.85
2018-05-09T04:11:06.694Z,55.68
2018-05-09T04:11:47.148Z,55.68
2018-05-09T04:12:27.663Z,55.78
2018-05-09T04:13:08.232Z,55.78
2018-05-09T04:13:48.624Z,55.78
2018-05-09T04:14:29.120Z,55.88
2018-05-09T04:15:09.596Z,55.68
2018-05-09T04:15:50.066Z,55.68
2018-05-09T04:16:30.603Z,55.59
2018-05-09T04:17:11.050Z,55.59
2018-05-09T04:17:51.569Z,55.59
2018-05-09T04:18:32.106Z,55.56
2018-05-09T04:19:12.591Z,55.49
2018-05-09T04:19:53.080Z,55.68
2018-05-09T04:20:33.681Z,55.78
2018-05-09T04:21:14.013Z,55.59
2018-05-09T04:21:54.550Z,55.59
2018-05-09T04:22:35.009Z,55.49
2018-05-09T04:23:15.523Z,55.59
2018-05-09T04:23:55.991Z,55.4
2018-05-09T04:24:36.514Z,55.59
2018-05-09T04:25:16.963Z,55.59
2018-05-09T04:25:57.459Z,55.49
2018-05-09T04:26:37.958Z,55.59
2018-05-09T04:27:18.435Z,55.78
2018-05-09T04:27:58.935Z,55.2
2018-05-09T04:28:39.418Z,55.68
2018-05-09T04:29:19.890Z,55.56
2018-05-09T04:30:00.385Z,55.56
2018-05-09T04:30:40.865Z,55.56
2018-05-09T04:31:21.348Z,55.85
2018-05-09T04:32:01.840Z,55.76
2018-05-09T04:32:42.318Z,55.66
2018-05-09T04:33:22.840Z,55.98
2018-05-09T04:34:03.317Z,55.78
2018-05-09T04:34:43.806Z,55.3
2018-05-09T04:35:24.291Z,55.2
2018-05-09T04:36:04.769Z,55.49
2018-05-09T04:36:45.279Z,55.49
2018-05-09T04:37:25.763Z,55.01
2018-05-09T04:38:06.274Z,55.49
2018-05-09T04:38:46.785Z,55.49
2018-05-09T04:39:27.323Z,55.11
2018-05-09T04:40:09.211Z,55.01
2018-05-09T04:40:49.693Z,55.01
2018-05-09T04:41:30.240Z,55.49
2018-05-09T04:42:10.711Z,55.78
2018-05-09T04:42:51.175Z,55.4
2018-05-09T04:43:31.696Z,55.59
2018-05-09T04:44:12.179Z,55.49
2018-05-09T04:44:52.651Z,55.11
2018-05-09T04:45:33.176Z,55.11
2018-05-09T04:46:13.657Z,55.4
2018-05-09T04:46:54.179Z,55.68
2018-05-09T04:47:34.675Z,55.68
2018-05-09T04:48:15.178Z,55.78
2018-05-09T04:48:55.697Z,55.3
2018-05-09T04:49:36.202Z,55.68
2018-05-09T04:50:16.688Z,55.9
2018-05-09T04:50:57.166Z,55.81
2018-05-09T04:51:37.671Z,55.81
2018-05-09T04:52:18.160Z,55.33
2018-05-09T04:52:58.671Z,55.78
2018-05-09T04:53:39.140Z,55.62
2018-05-09T04:54:19.699Z,55.4
2018-05-09T04:55:00.207Z,55.88
2018-05-09T04:55:40.811Z,55.88
2018-05-09T04:56:21.198Z,55.88
2018-05-09T04:57:01.680Z,55.88
2018-05-09T04:57:42.201Z,56.36
2018-05-09T04:58:22.732Z,56
2018-05-09T04:59:03.231Z,56
2018-05-09T04:59:43.708Z,55.43
2018-05-09T05:00:24.175Z,55.78
2018-05-09T05:01:04.672Z,55.62
2018-05-09T05:01:45.166Z,55.71
2018-05-09T05:02:25.678Z,55.52
2018-05-09T05:03:06.156Z,55.59
2018-05-09T05:03:46.674Z,55.59
2018-05-09T05:04:27.209Z,55.49
2018-05-09T05:05:07.678Z,55.52
2018-05-09T05:05:48.185Z,55.62
2018-05-09T05:06:28.679Z,55.81
2018-05-09T05:07:09.150Z,55.81
2018-05-09T05:07:49.651Z,55.9
2018-05-09T05:08:30.123Z,55.81
2018-05-09T05:09:10.657Z,55.71
2018-05-09T05:09:51.228Z,55.62
2018-05-09T05:10:31.722Z,55.62
2018-05-09T05:11:12.183Z,55.81
2018-05-09T05:11:52.783Z,55.52
2018-05-09T05:12:33.256Z,55.43
2018-05-09T05:13:13.757Z,55.23
2018-05-09T05:13:54.258Z,55.33
2018-05-09T05:14:34.767Z,55.71
2018-05-09T05:15:15.246Z,55.52
2018-05-09T05:15:55.780Z,55.81
2018-05-09T05:16:36.321Z,56.38
2018-05-09T05:17:16.842Z,57.92
2018-05-09T05:17:57.361Z,60.33
2018-05-09T05:18:37.855Z,65.33
2018-05-09T05:19:18.376Z,64.18
2018-05-09T05:19:58.900Z,64.08
2018-05-09T05:20:39.424Z,66.2
2018-05-09T05:21:19.944Z,63.41
2018-05-09T05:22:00.460Z,62.93
2018-05-09T05:22:40.973Z,63.18
2018-05-09T05:23:21.500Z,61.84
2018-05-09T05:24:01.981Z,64.86
2018-05-09T05:24:42.502Z,69.63
2018-05-09T05:25:23.026Z,66.39
2018-05-09T05:26:03.510Z,62.93
2018-05-09T05:26:44.028Z,64.37
2018-05-09T05:27:24.575Z,65.24
2018-05-09T05:28:05.056Z,61.87
2018-05-09T05:28:45.584Z,61.19
2018-05-09T05:29:26.133Z,61.68
2018-05-09T05:30:06.651Z,61.1
2018-05-09T05:30:47.145Z,59.66
2018-05-09T05:31:27.678Z,61.77
2018-05-09T05:32:08.174Z,60.24
2018-05-09T05:32:48.701Z,59.75
2018-05-09T05:33:29.173Z,59.56
2018-05-09T05:34:09.668Z,59.17
2018-05-09T05:34:50.215Z,58.02
2018-05-09T05:35:30.702Z,61.29
2018-05-09T05:36:11.330Z,59.17
2018-05-09T05:36:51.844Z,58.22
2018-05-09T05:37:32.366Z,58.12
2018-05-09T05:38:12.848Z,62.74
2018-05-09T05:38:53.546Z,61.1
2018-05-09T05:39:34.031Z,59.08
2018-05-09T05:40:14.584Z,59.11
2018-05-09T05:40:55.082Z,59.56
2018-05-09T05:41:35.583Z,60.81
2018-05-09T05:42:16.150Z,59.2
2018-05-09T05:42:56.676Z,58.34
2018-05-09T05:43:37.170Z,59.78
2018-05-09T05:44:17.683Z,57.95
2018-05-09T05:44:58.355Z,57.02
2018-05-09T05:45:38.719Z,61.29
2018-05-09T05:46:19.255Z,59.27
2018-05-09T05:46:59.835Z,60.52
2018-05-09T05:47:40.355Z,61.8
2018-05-09T05:48:20.873Z,60.64
2018-05-09T05:49:01.390Z,57.65
2018-05-09T05:49:41.980Z,55.54
2018-05-09T05:50:22.499Z,54.5
2018-05-09T05:51:03.020Z,54.88
2018-05-09T05:51:43.540Z,55.76
2018-05-09T05:52:24.052Z,55.76
2018-05-09T05:53:04.568Z,56.91
2018-05-09T05:53:45.076Z,59.32
2018-05-09T05:54:25.605Z,58.17
2018-05-09T05:55:06.131Z,61.06
2018-05-09T05:55:46.657Z,63.24
2018-05-09T05:56:27.178Z,63.06
2018-05-09T05:57:07.755Z,62.09
2018-05-09T05:57:48.282Z,63.82
2018-05-09T05:58:28.785Z,60.38
2018-05-09T06:00:21.945Z,60.38
2018-05-09T06:01:02.462Z,61.57
2018-05-09T06:01:42.979Z,62.44
2018-05-09T06:02:23.520Z,61.77
2018-05-09T06:03:04.088Z,59.55
2018-05-09T06:03:44.600Z,61.41
2018-05-09T06:04:25.114Z,62.76
2018-05-09T06:05:05.634Z,56.87
2018-05-09T06:05:46.158Z,55.26
2018-05-09T06:06:26.702Z,54.39
2018-05-09T06:07:07.197Z,59.99
2018-05-09T06:07:47.694Z,63.37
2018-05-09T06:08:28.193Z,59.89
2018-05-09T06:09:09.507Z,56.51
2018-05-09T06:09:49.994Z,56.8
2018-05-09T06:10:30.704Z,60.38
2018-05-09T06:11:11.328Z,58.28
2018-05-09T06:11:51.829Z,56.63
2018-05-09T06:12:32.457Z,57.31
2018-05-09T06:13:12.928Z,60.11
2018-05-09T06:13:53.459Z,63.21
2018-05-09T06:14:33.973Z,68.24
2018-05-09T06:15:14.533Z,61.95
2018-05-09T06:15:54.966Z,57.87
2018-05-09T06:16:35.473Z,56.13
2018-05-09T06:17:16.112Z,53.23
2018-05-09T06:17:56.430Z,52.26
2018-05-09T06:18:37.021Z,55.45
2018-05-09T06:19:17.448Z,54.49
2018-05-09T06:19:57.963Z,54.87
2018-05-09T06:20:38.504Z,52.26
2018-05-09T06:21:19.107Z,52.26
2018-05-09T06:21:59.522Z,53.23
2018-05-09T06:22:40.056Z,56.61
2018-05-09T06:23:20.585Z,53.33
2018-05-09T06:24:01.231Z,54.49
2018-05-09T06:24:41.641Z,57.87
2018-05-09T06:25:22.175Z,57.48
2018-05-09T06:26:02.687Z,60.76
2018-05-09T06:26:43.138Z,61.92
2018-05-09T06:27:23.649Z,62.79
2018-05-09T06:28:04.118Z,57.77
2018-05-09T06:28:44.625Z,56.9
2018-05-09T06:29:25.165Z,54.39
2018-05-09T06:30:05.676Z,57.19
2018-05-09T06:30:46.174Z,56.61
2018-05-09T06:31:26.642Z,58.25
2018-05-09T06:32:07.175Z,60.57
2018-05-09T06:32:47.676Z,58.25
2018-05-09T06:33:28.148Z,56.41
2018-05-09T06:34:08.688Z,55.55
2018-05-09T06:34:49.163Z,54.39
2018-05-09T06:35:29.676Z,53.33
2018-05-09T06:36:10.355Z,53.42
2018-05-09T06:36:50.877Z,53.81
2018-05-09T06:37:31.406Z,53.52
2018-05-09T06:38:11.915Z,53.16
2018-05-09T06:38:52.380Z,58.06
2018-05-09T06:39:32.844Z,58.35
2018-05-09T06:40:13.357Z,59.15
2018-05-09T06:40:53.860Z,57.7
2018-05-09T06:41:34.382Z,59.83
2018-05-09T06:42:14.877Z,59.92
2018-05-09T06:42:55.444Z,60.99
2018-05-09T06:43:35.935Z,59.34
2018-05-09T06:44:16.422Z,61.27
2018-05-09T06:44:56.902Z,57.31
2018-05-09T06:45:37.358Z,55.96
2018-05-09T06:46:17.895Z,54.61
2018-05-09T06:46:58.347Z,60.31
2018-05-09T06:47:38.840Z,63.5
2018-05-09T06:48:19.347Z,64.37
2018-05-09T06:48:59.894Z,62.44
2018-05-09T06:49:40.330Z,59.44
2018-05-09T06:50:20.843Z,63.79
2018-05-09T06:51:01.383Z,65.34
2018-05-09T06:51:41.835Z,61.95
2018-05-09T06:52:22.495Z,65.63
2018-05-09T06:53:02.950Z,66.69
2018-05-09T06:53:43.532Z,68.14
2018-05-09T06:54:24.069Z,63.4
2018-05-09T06:55:04.741Z,58.18
2018-05-09T06:55:45.299Z,55.96
2018-05-09T06:56:25.745Z,59.92
2018-05-09T06:57:06.309Z,63.31
2018-05-09T06:57:46.723Z,61.3
2018-05-09T06:58:27.243Z,57.6
2018-05-09T06:59:07.845Z,56.09
2018-05-09T06:59:48.230Z,55.51
2018-05-09T07:00:28.802Z,61.98
2018-05-09T07:01:09.244Z,58.4
2018-05-09T07:01:49.756Z,65.47
2018-05-09T07:02:30.492Z,67.21
2018-05-09T07:03:11.021Z,63.14
2018-05-09T07:03:51.515Z,61.6
2018-05-09T07:04:31.992Z,59.08
2018-05-09T07:05:12.481Z,56.09
2018-05-09T07:05:53.022Z,54.63
2018-05-09T07:06:33.642Z,54.25
2018-05-09T07:07:14.008Z,55.21
2018-05-09T07:07:54.550Z,54.73
2018-05-09T07:08:35.052Z,55.99
2018-05-09T07:09:15.581Z,58.12
2018-05-09T07:09:56.056Z,56.09
2018-05-09T07:10:36.555Z,54.73
2018-05-09T07:11:17.035Z,59.56
2018-05-09T07:11:57.602Z,68.27
2018-05-09T07:12:38.183Z,68.95
2018-05-09T07:13:18.586Z,69.04
2018-05-09T07:13:59.086Z,65.75
2018-05-09T07:14:39.590Z,60.44
2018-05-09T07:15:20.235Z,59.47
2018-05-09T07:16:00.740Z,58.14
2018-05-09T07:16:41.237Z,55.73
2018-05-09T07:17:21.725Z,60.44
2018-05-09T07:18:02.216Z,62.21
2018-05-09T07:18:42.747Z,62.66
2018-05-09T07:19:23.269Z,61.43
2018-05-09T07:20:03.738Z,61.43
2018-05-09T07:20:44.320Z,62.3
2018-05-09T07:21:24.785Z,62.3
2018-05-09T07:22:05.298Z,56.98
2018-05-09T07:22:45.950Z,54.75
2018-05-09T07:23:26.500Z,53.59
2018-05-09T07:24:07.009Z,52.92
2018-05-09T07:24:47.508Z,53.89
2018-05-09T07:25:28.980Z,55.15
2018-05-09T07:26:10.233Z,55.46
2018-05-09T07:26:50.747Z,55.36
2018-05-09T07:27:31.215Z,53.91
2018-05-09T07:28:11.682Z,55.66
2018-05-09T07:28:52.203Z,58.07
2018-05-09T07:29:32.729Z,59.69
2018-05-09T07:30:13.228Z,56.18
2018-05-09T07:30:53.712Z,56.21
2018-05-09T07:31:34.217Z,62.3
2018-05-09T07:32:14.674Z,63.63
2018-05-09T07:32:55.191Z,60.44
2018-05-09T07:33:35.720Z,59.18
2018-05-09T07:34:16.218Z,61.69
2018-05-09T07:34:56.661Z,60.44
2018-05-09T07:35:37.187Z,62.18
2018-05-09T07:36:17.687Z,57.73
2018-05-09T07:36:58.203Z,60.44
2018-05-09T07:37:38.873Z,59.76
2018-05-09T07:38:19.375Z,58.21
2018-05-09T07:38:59.904Z,62.11
2018-05-09T07:39:40.350Z,55.99
2018-05-09T07:40:20.833Z,56.21
2018-05-09T07:41:01.342Z,55.15
2018-05-09T07:41:41.857Z,55.92
2018-05-09T07:42:22.411Z,63.95
2018-05-09T07:43:02.868Z,62.88
2018-05-09T07:43:43.376Z,60.08
2018-05-09T07:44:23.878Z,62.59
2018-05-09T07:45:04.379Z,61.66
2018-05-09T07:45:44.839Z,56.04
2018-05-09T07:46:25.346Z,56.52
2018-05-09T07:47:05.832Z,59.82
2018-05-09T07:47:46.413Z,64.75
2018-05-09T07:48:26.798Z,65.53
2018-05-09T07:49:07.389Z,66.78
2018-05-09T07:49:47.871Z,63.46
2018-05-09T07:50:28.384Z,59.72
2018-05-09T07:51:09.017Z,56.34
2018-05-09T07:51:49.622Z,62.92
2018-05-09T07:52:30.070Z,59.59
2018-05-09T07:53:10.543Z,59.89
2018-05-09T07:53:51.093Z,56.02
2018-05-09T07:54:31.698Z,54.37
2018-05-09T07:55:12.150Z,59.79
2018-05-09T07:55:52.628Z,59.89
2018-05-09T07:56:33.101Z,60.66
2018-05-09T07:57:13.578Z,56.7
2018-05-09T07:57:54.111Z,63.34
2018-05-09T07:58:34.579Z,62.47
2018-05-09T07:59:15.087Z,56.47
2018-05-09T07:59:55.557Z,55.21
2018-05-09T08:00:36.227Z,54.66
2018-05-09T08:01:16.680Z,55.89
2018-05-09T08:01:57.165Z,55.99
2018-05-09T08:02:37.693Z,55.6
2018-05-09T08:03:18.195Z,54.15
2018-05-09T08:03:58.663Z,53.67
2018-05-09T08:04:39.224Z,55.99
2018-05-09T08:05:19.676Z,64.43
2018-05-09T08:06:00.225Z,64.69
2018-05-09T08:06:40.779Z,60.24
2018-05-09T08:07:21.313Z,60.05
2018-05-09T08:08:01.972Z,63.56
2018-05-09T08:08:42.496Z,60.27
2018-05-09T08:09:22.957Z,59.69
2018-05-09T08:10:03.444Z,58.12
2018-05-09T08:10:43.958Z,56.76
2018-05-09T08:11:24.464Z,55.51
2018-05-09T08:12:04.940Z,55.79
2018-05-09T08:12:45.461Z,58.02
2018-05-09T08:13:25.923Z,57.73
2018-05-09T08:14:06.442Z,57.92
2018-05-09T08:14:46.994Z,55.51
2018-05-09T08:15:27.655Z,56.09
2018-05-09T08:16:08.180Z,55.7
2018-05-09T08:16:48.672Z,55.89
2018-05-09T08:17:29.140Z,59.25
2018-05-09T08:18:09.617Z,58.89
2018-05-09T08:18:50.127Z,59.95
2018-05-09T08:19:30.640Z,61.3
2018-05-09T08:20:11.142Z,66.82
2018-05-09T08:20:51.676Z,70.01
2018-05-09T08:21:32.176Z,70.5
2018-05-09T08:22:12.719Z,63.24
2018-05-09T08:22:53.341Z,56.95
2018-05-09T08:23:33.853Z,56.57
2018-05-09T08:24:14.368Z,62.18
2018-05-09T08:24:54.870Z,62.56
2018-05-09T08:25:35.331Z,62.88
2018-05-09T08:26:15.851Z,64.62
2018-05-09T08:26:56.410Z,64.62
2018-05-09T08:27:36.935Z,67.05
2018-05-09T08:28:17.532Z,66.66
2018-05-09T08:28:58.025Z,61.63
2018-05-09T08:29:38.621Z,58.47
2018-05-09T08:30:19.236Z,63.59
2018-05-09T08:30:59.651Z,64.75
2018-05-09T08:31:40.140Z,62.63
2018-05-09T08:32:20.629Z,63.4
2018-05-09T08:33:01.139Z,63.4
2018-05-09T08:33:41.658Z,63.21
2018-05-09T08:34:22.153Z,61.95
2018-05-09T08:35:02.812Z,60.17
2018-05-09T08:35:43.319Z,57.88
2018-05-09T08:36:23.812Z,54.88
2018-05-09T08:37:04.291Z,53.31
2018-05-09T08:37:44.790Z,53.5
2018-05-09T08:38:25.270Z,60.47
2018-05-09T08:39:05.733Z,60.57
2018-05-09T08:39:46.257Z,56.72
2018-05-09T08:40:26.762Z,57.2
2018-05-09T08:41:07.235Z,59.53
2018-05-09T08:41:47.798Z,62.82
2018-05-09T08:42:28.241Z,63.21
2018-05-09T08:43:08.760Z,60.59
2018-05-09T08:43:49.313Z,56.34
2018-05-09T08:44:29.702Z,59.63